sensor_id;sensor_type;location;lat;lon;timestamp;pressure;altitude;pressure_sealevel;temperature;humidity
61645;BME280;47553;52.428;13.382;2022-10-15T00:01:17;100355.41;;;12.28;100.00
61645;BME280;47553;52.428;13.382;2022-10-15T00:03:19;100353.38;;;12.32;100.00
61645;BME280;47553;52.428;13.382;2022-10-15T00:05:21;100338.50;;;12.28;100.00
61645;BME280;47553;52.428;13.382;2022-10-15T00:07:24;100344.19;;;12.23;100.00
61645;BME280;47553;52.428;13.382;2022-10-15T00:09:26;100342.66;;;12.32;100.00
61645;BME280;47553;52.428;13.382;2022-10-15T00:11:29;100337.53;;;12.29;100.00
61645;BME280;47553;52.428;13.382;2022-10-15T00:13:32;100323.19;;;12.30;100.00
61645;BME280;47553;52.428;13.382;2022-10-15T00:15:35;100322.34;;;12.29;100.00
61645;BME280;47553;52.428;13.382;2022-10-15T00:17:37;100325.53;;;12.34;100.00
61645;BME280;47553;52.428;13.382;2022-10-15T00:19:38;100317.00;;;12.29;100.00
61645;BME280;47553;52.428;13.382;2022-10-15T00:21:40;100313.78;;;12.37;100.00
61645;BME280;47553;52.428;13.382;2022-10-15T00:23:43;100304.81;;;12.38;100.00
61645;BME280;47553;52.428;13.382;2022-10-15T00:25:45;100307.78;;;12.33;100.00
61645;BME280;47553;52.428;13.382;2022-10-15T00:27:46;100305.44;;;12.29;100.00
61645;BME280;47553;52.428;13.382;2022-10-15T00:29:48;100308.22;;;12.27;100.00
61645;BME280;47553;52.428;13.382;2022-10-15T00:31:49;100304.59;;;12.28;100.00
61645;BME280;47553;52.428;13.382;2022-10-15T00:33:52;100302.44;;;12.33;100.00
61645;BME280;47553;52.428;13.382;2022-10-15T00:35:58;100311.22;;;12.35;100.00
61645;BME280;47553;52.428;13.382;2022-10-15T00:38:02;100304.38;;;12.31;100.00
61645;BME280;47553;52.428;13.382;2022-10-15T00:40:11;100297.31;;;12.30;100.00
61645;BME280;47553;52.428;13.382;2022-10-15T00:42:12;100297.94;;;12.34;100.00
61645;BME280;47553;52.428;13.382;2022-10-15T00:44:48;100298.28;;;12.42;100.00
61645;BME280;47553;52.428;13.382;2022-10-15T00:46:51;100300.00;;;12.30;100.00
61645;BME280;47553;52.428;13.382;2022-10-15T00:48:56;100304.59;;;12.28;100.00
61645;BME280;47553;52.428;13.382;2022-10-15T00:51:01;100303.84;;;12.26;100.00
61645;BME280;47553;52.428;13.382;2022-10-15T00:53:06;100305.03;;;12.22;100.00
61645;BME280;47553;52.428;13.382;2022-10-15T00:55:14;100306.53;;;12.26;100.00
61645;BME280;47553;52.428;13.382;2022-10-15T00:57:16;100298.16;;;12.31;100.00
61645;BME280;47553;52.428;13.382;2022-10-15T00:59:18;100299.03;;;12.31;100.00
61645;BME280;47553;52.428;13.382;2022-10-15T01:01:21;100292.06;;;12.42;100.00
61645;BME280;47553;52.428;13.382;2022-10-15T01:03:23;100275.47;;;12.36;100.00
61645;BME280;47553;52.428;13.382;2022-10-15T01:05:25;100284.47;;;12.35;100.00
61645;BME280;47553;52.428;13.382;2022-10-15T01:07:27;100281.50;;;12.27;100.00
61645;BME280;47553;52.428;13.382;2022-10-15T01:09:29;100276.16;;;12.27;100.00
61645;BME280;47553;52.428;13.382;2022-10-15T01:11:37;100274.97;;;12.31;100.00
61645;BME280;47553;52.428;13.382;2022-10-15T01:13:48;100263.75;;;12.26;100.00
61645;BME280;47553;52.428;13.382;2022-10-15T01:15:55;100265.22;;;12.30;100.00
61645;BME280;47553;52.428;13.382;2022-10-15T01:18:00;100260.50;;;12.34;100.00
61645;BME280;47553;52.428;13.382;2022-10-15T01:20:22;100257.94;;;12.32;100.00
61645;BME280;47553;52.428;13.382;2022-10-15T01:22:36;100255.19;;;12.21;100.00
61645;BME280;47553;52.428;13.382;2022-10-15T01:24:57;100260.09;;;12.27;100.00
61645;BME280;47553;52.428;13.382;2022-10-15T01:27:16;100254.25;;;12.22;100.00
61645;BME280;47553;52.428;13.382;2022-10-15T01:29:39;100250.50;;;12.25;100.00
61645;BME280;47553;52.428;13.382;2022-10-15T01:31:55;100251.78;;;12.19;100.00
61645;BME280;47553;52.428;13.382;2022-10-15T01:34:03;100248.38;;;12.17;100.00
61645;BME280;47553;52.428;13.382;2022-10-15T01:36:14;100242.81;;;12.20;100.00
61645;BME280;47553;52.428;13.382;2022-10-15T01:38:25;100243.44;;;12.24;100.00
61645;BME280;47553;52.428;13.382;2022-10-15T01:40:32;100246.97;;;12.24;100.00
61645;BME280;47553;52.428;13.382;2022-10-15T01:42:40;100250.09;;;12.18;100.00
61645;BME280;47553;52.428;13.382;2022-10-15T01:44:48;100245.38;;;12.22;100.00
61645;BME280;47553;52.428;13.382;2022-10-15T01:46:56;100229.09;;;12.25;100.00
61645;BME280;47553;52.428;13.382;2022-10-15T01:49:01;100244.50;;;12.21;100.00
61645;BME280;47553;52.428;13.382;2022-10-15T01:51:05;100243.66;;;12.21;100.00
61645;BME280;47553;52.428;13.382;2022-10-15T01:53:08;100238.09;;;12.24;100.00
61645;BME280;47553;52.428;13.382;2022-10-15T01:55:13;100235.94;;;12.29;100.00
61645;BME280;47553;52.428;13.382;2022-10-15T01:57:18;100235.59;;;12.33;100.00
61645;BME280;47553;52.428;13.382;2022-10-15T01:59:24;100237.84;;;12.40;100.00
61645;BME280;47553;52.428;13.382;2022-10-15T02:01:27;100226.50;;;12.36;100.00
61645;BME280;47553;52.428;13.382;2022-10-15T02:03:30;100222.97;;;12.35;100.00
61645;BME280;47553;52.428;13.382;2022-10-15T02:05:37;100214.94;;;12.35;100.00
61645;BME280;47553;52.428;13.382;2022-10-15T02:07:46;100217.84;;;12.32;100.00
61645;BME280;47553;52.428;13.382;2022-10-15T02:09:51;100218.06;;;12.29;100.00
61645;BME280;47553;52.428;13.382;2022-10-15T02:12:01;100225.63;;;12.35;100.00
61645;BME280;47553;52.428;13.382;2022-10-15T02:14:08;100207.56;;;12.39;100.00
61645;BME280;47553;52.428;13.382;2022-10-15T02:16:13;100216.66;;;12.36;100.00
61645;BME280;47553;52.428;13.382;2022-10-15T02:18:27;100217.19;;;12.42;100.00
61645;BME280;47553;52.428;13.382;2022-10-15T02:20:38;100221.47;;;12.44;100.00
61645;BME280;47553;52.428;13.382;2022-10-15T02:22:46;100217.94;;;12.44;100.00
61645;BME280;47553;52.428;13.382;2022-10-15T02:24:51;100212.81;;;12.41;100.00
61645;BME280;47553;52.428;13.382;2022-10-15T02:26:56;100207.97;;;12.46;100.00
61645;BME280;47553;52.428;13.382;2022-10-15T02:28:59;100213.97;;;12.36;100.00
61645;BME280;47553;52.428;13.382;2022-10-15T02:31:03;100216.25;;;12.30;100.00
61645;BME280;47553;52.428;13.382;2022-10-15T02:33:06;100209.47;;;12.37;100.00
61645;BME280;47553;52.428;13.382;2022-10-15T02:35:09;100209.06;;;12.43;100.00
61645;BME280;47553;52.428;13.382;2022-10-15T02:37:14;100205.22;;;12.34;100.00
61645;BME280;47553;52.428;13.382;2022-10-15T02:39:21;100201.69;;;12.34;100.00
61645;BME280;47553;52.428;13.382;2022-10-15T02:41:23;100210.44;;;12.36;100.00
61645;BME280;47553;52.428;13.382;2022-10-15T02:43:24;100198.69;;;12.39;100.00
61645;BME280;47553;52.428;13.382;2022-10-15T02:45:26;100194.28;;;12.38;100.00
61645;BME280;47553;52.428;13.382;2022-10-15T02:47:27;100187.56;;;12.32;100.00
61645;BME280;47553;52.428;13.382;2022-10-15T02:49:29;100202.75;;;12.31;100.00
61645;BME280;47553;52.428;13.382;2022-10-15T02:51:30;100191.09;;;12.32;100.00
61645;BME280;47553;52.428;13.382;2022-10-15T02:53:33;100193.53;;;12.35;100.00
61645;BME280;47553;52.428;13.382;2022-10-15T02:55:35;100198.50;;;12.29;100.00
61645;BME280;47553;52.428;13.382;2022-10-15T02:57:36;100192.69;;;12.35;100.00
61645;BME280;47553;52.428;13.382;2022-10-15T02:59:38;100189.91;;;12.36;100.00
61645;BME280;47553;52.428;13.382;2022-10-15T03:01:39;100195.47;;;12.33;100.00
61645;BME280;47553;52.428;13.382;2022-10-15T03:03:41;100195.38;;;12.35;100.00
61645;BME280;47553;52.428;13.382;2022-10-15T03:05:42;100193.53;;;12.35;100.00
61645;BME280;47553;52.428;13.382;2022-10-15T03:07:44;100191.44;;;12.28;100.00
61645;BME280;47553;52.428;13.382;2022-10-15T03:09:47;100192.53;;;12.25;100.00
61645;BME280;47553;52.428;13.382;2022-10-15T03:11:48;100190.34;;;12.30;100.00
61645;BME280;47553;52.428;13.382;2022-10-15T03:13:50;100192.28;;;12.28;100.00
61645;BME280;47553;52.428;13.382;2022-10-15T03:15:51;100192.53;;;12.25;100.00
61645;BME280;47553;52.428;13.382;2022-10-15T03:17:53;100194.22;;;12.26;100.00
61645;BME280;47553;52.428;13.382;2022-10-15T03:19:54;100192.53;;;12.25;100.00
61645;BME280;47553;52.428;13.382;2022-10-15T03:21:56;100192.75;;;12.22;100.00
61645;BME280;47553;52.428;13.382;2022-10-15T03:23:57;100191.03;;;12.21;100.00
61645;BME280;47553;52.428;13.382;2022-10-15T03:26:00;100181.31;;;12.20;100.00
61645;BME280;47553;52.428;13.382;2022-10-15T03:28:02;100181.81;;;12.25;100.00
61645;BME280;47553;52.428;13.382;2022-10-15T03:30:05;100180.34;;;12.21;100.00
61645;BME280;47553;52.428;13.382;2022-10-15T03:32:06;100175.22;;;12.18;100.00
61645;BME280;47553;52.428;13.382;2022-10-15T03:34:08;100171.59;;;12.19;100.00
61645;BME280;47553;52.428;13.382;2022-10-15T03:36:09;100170.50;;;12.22;100.00
61645;BME280;47553;52.428;13.382;2022-10-15T03:38:11;100177.34;;;12.26;100.00
61645;BME280;47553;52.428;13.382;2022-10-15T03:40:13;100171.88;;;12.27;100.00
61645;BME280;47553;52.428;13.382;2022-10-15T03:42:16;100164.94;;;12.25;100.00
61645;BME280;47553;52.428;13.382;2022-10-15T03:44:18;100171.13;;;12.25;100.00
61645;BME280;47553;52.428;13.382;2022-10-15T03:46:20;100171.59;;;12.19;100.00
61645;BME280;47553;52.428;13.382;2022-10-15T03:48:21;100168.16;;;12.17;100.00
61645;BME280;47553;52.428;13.382;2022-10-15T03:50:23;100165.81;;;12.13;100.00
61645;BME280;47553;52.428;13.382;2022-10-15T03:52:24;100172.84;;;12.14;100.00
61645;BME280;47553;52.428;13.382;2022-10-15T03:54:26;100171.78;;;12.16;100.00
61645;BME280;47553;52.428;13.382;2022-10-15T03:56:28;100172.00;;;12.13;100.00
61645;BME280;47553;52.428;13.382;2022-10-15T03:58:31;100173.09;;;12.11;100.00
61645;BME280;47553;52.428;13.382;2022-10-15T04:00:32;100172.69;;;12.04;100.00
61645;BME280;47553;52.428;13.382;2022-10-15T04:02:34;100178.25;;;12.01;100.00
61645;BME280;47553;52.428;13.382;2022-10-15T04:04:36;100168.41;;;12.01;100.00
61645;BME280;47553;52.428;13.382;2022-10-15T04:06:37;100172.59;;;11.93;100.00
61645;BME280;47553;52.428;13.382;2022-10-15T04:08:39;100171.66;;;11.94;100.00
61645;BME280;47553;52.428;13.382;2022-10-15T04:10:40;100173.34;;;11.95;100.00
61645;BME280;47553;52.428;13.382;2022-10-15T04:12:42;100175.50;;;11.90;100.00
61645;BME280;47553;52.428;13.382;2022-10-15T04:14:45;100170.16;;;11.90;100.00
61645;BME280;47553;52.428;13.382;2022-10-15T04:16:46;100174.25;;;11.83;100.00
61645;BME280;47553;52.428;13.382;2022-10-15T04:18:48;100177.88;;;11.82;100.00
61645;BME280;47553;52.428;13.382;2022-10-15T04:20:49;100175.94;;;11.84;100.00
61645;BME280;47553;52.428;13.382;2022-10-15T04:22:51;100183.00;;;11.85;100.00
61645;BME280;47553;52.428;13.382;2022-10-15T04:24:52;100182.78;;;11.88;100.00
61645;BME280;47553;52.428;13.382;2022-10-15T04:26:54;100183.28;;;11.93;100.00
61645;BME280;47553;52.428;13.382;2022-10-15T04:28:55;100183.53;;;11.90;100.00
61645;BME280;47553;52.428;13.382;2022-10-15T04:30:59;100182.78;;;11.88;100.00
61645;BME280;47553;52.428;13.382;2022-10-15T04:33:01;100184.59;;;11.87;100.00
61645;BME280;47553;52.428;13.382;2022-10-15T04:35:03;100181.06;;;11.87;100.00
61645;BME280;47553;52.428;13.382;2022-10-15T04:37:05;100168.44;;;11.89;100.00
61645;BME280;47553;52.428;13.382;2022-10-15T04:39:06;100187.38;;;11.86;100.00
61645;BME280;47553;52.428;13.382;2022-10-15T04:41:12;100181.06;;;11.87;100.00
61645;BME280;47553;52.428;13.382;2022-10-15T04:43:14;100182.78;;;11.88;100.00
61645;BME280;47553;52.428;13.382;2022-10-15T04:45:15;100185.13;;;11.92;100.00
61645;BME280;47553;52.428;13.382;2022-10-15T04:47:18;100189.81;;;11.89;100.00
61645;BME280;47553;52.428;13.382;2022-10-15T04:49:20;100186.19;;;11.90;100.00
61645;BME280;47553;52.428;13.382;2022-10-15T04:51:22;100179.03;;;11.90;100.00
61645;BME280;47553;52.428;13.382;2022-10-15T04:53:24;100180.41;;;11.96;100.00
61645;BME280;47553;52.428;13.382;2022-10-15T04:55:26;100176.44;;;12.01;100.00
61645;BME280;47553;52.428;13.382;2022-10-15T04:57:27;100185.53;;;11.99;100.00
61645;BME280;47553;52.428;13.382;2022-10-15T04:59:29;100185.31;;;12.02;100.00
61645;BME280;47553;52.428;13.382;2022-10-15T05:01:30;100183.59;;;12.01;100.00
61645;BME280;47553;52.428;13.382;2022-10-15T05:03:34;100187.75;;;12.05;100.00
61645;BME280;47553;52.428;13.382;2022-10-15T05:05:40;100187.63;;;12.07;100.00
61645;BME280;47553;52.428;13.382;2022-10-15T05:07:41;100195.53;;;12.08;100.00
61645;BME280;47553;52.428;13.382;2022-10-15T05:09:43;100184.22;;;12.17;100.00
61645;BME280;47553;52.428;13.382;2022-10-15T05:11:47;100177.91;;;12.18;100.00
61645;BME280;47553;52.428;13.382;2022-10-15T05:13:49;100178.63;;;12.20;100.00
61645;BME280;47553;52.428;13.382;2022-10-15T05:15:51;100182.91;;;12.10;100.00
61645;BME280;47553;52.428;13.382;2022-10-15T05:17:52;100182.69;;;12.13;100.00
61645;BME280;47553;52.428;13.382;2022-10-15T05:19:55;100181.22;;;12.09;100.00
61645;BME280;47553;52.428;13.382;2022-10-15T05:21:57;100182.91;;;12.10;100.00
61645;BME280;47553;52.428;13.382;2022-10-15T05:23:58;100180.34;;;12.09;100.00
61645;BME280;47553;52.428;13.382;2022-10-15T05:26:01;100184.41;;;12.14;100.00
61645;BME280;47553;52.428;13.382;2022-10-15T05:28:03;100183.97;;;12.20;100.00
61645;BME280;47553;52.428;13.382;2022-10-15T05:30:05;100187.41;;;12.22;100.00
61645;BME280;47553;52.428;13.382;2022-10-15T05:32:07;100182.69;;;12.26;100.00
61645;BME280;47553;52.428;13.382;2022-10-15T05:34:08;100191.66;;;12.25;100.00
61645;BME280;47553;52.428;13.382;2022-10-15T05:36:15;100194.69;;;12.20;100.00
61645;BME280;47553;52.428;13.382;2022-10-15T05:38:17;100199.56;;;12.26;100.00
61645;BME280;47553;52.428;13.382;2022-10-15T05:40:18;100194.00;;;12.29;100.00
61645;BME280;47553;52.428;13.382;2022-10-15T05:42:22;100194.00;;;12.29;100.00
61645;BME280;47553;52.428;13.382;2022-10-15T05:44:24;100199.34;;;12.29;100.00
61645;BME280;47553;52.428;13.382;2022-10-15T05:46:25;100201.28;;;12.27;100.00
61645;BME280;47553;52.428;13.382;2022-10-15T05:48:27;100212.31;;;12.23;100.00
61645;BME280;47553;52.428;13.382;2022-10-15T05:50:28;100209.53;;;12.24;100.00
61645;BME280;47553;52.428;13.382;2022-10-15T05:52:31;100214.53;;;12.29;100.00
61645;BME280;47553;52.428;13.382;2022-10-15T05:54:33;100215.41;;;12.29;100.00
61645;BME280;47553;52.428;13.382;2022-10-15T05:56:34;100213.47;;;12.31;100.00
61645;BME280;47553;52.428;13.382;2022-10-15T05:58:36;100219.47;;;12.22;100.00
61645;BME280;47553;52.428;13.382;2022-10-15T06:00:38;100210.72;;;12.20;100.00
61645;BME280;47553;52.428;13.382;2022-10-15T06:02:39;100212.84;;;12.15;100.00
61645;BME280;47553;52.428;13.382;2022-10-15T06:04:41;100218.19;;;12.15;100.00
61645;BME280;47553;52.428;13.382;2022-10-15T06:06:42;100216.06;;;12.20;100.00
61645;BME280;47553;52.428;13.382;2022-10-15T06:08:46;100226.75;;;12.20;100.00
61645;BME280;47553;52.428;13.382;2022-10-15T06:10:48;100226.31;;;12.26;100.00
61645;BME280;47553;52.428;13.382;2022-10-15T06:12:50;100222.56;;;12.29;100.00
61645;BME280;47553;52.428;13.382;2022-10-15T06:14:51;100231.22;;;12.32;100.00
61645;BME280;47553;52.428;13.382;2022-10-15T06:16:53;100230.13;;;12.35;100.00
61645;BME280;47553;52.428;13.382;2022-10-15T06:18:54;100226.09;;;12.29;100.00
61645;BME280;47553;52.428;13.382;2022-10-15T06:20:57;100232.69;;;12.36;100.00
61645;BME280;47553;52.428;13.382;2022-10-15T06:22:59;100233.97;;;12.44;100.00
61645;BME280;47553;52.428;13.382;2022-10-15T06:25:02;100235.69;;;12.45;100.00
61645;BME280;47553;52.428;13.382;2022-10-15T06:27:06;100233.63;;;12.48;100.00
61645;BME280;47553;52.428;13.382;2022-10-15T06:29:11;100239.31;;;12.44;100.00
61645;BME280;47553;52.428;13.382;2022-10-15T06:31:12;100237.78;;;12.52;100.00
61645;BME280;47553;52.428;13.382;2022-10-15T06:33:14;100236.72;;;12.55;100.00
61645;BME280;47553;52.428;13.382;2022-10-15T06:35:17;100229.59;;;12.66;100.00
61645;BME280;47553;52.428;13.382;2022-10-15T06:37:18;100234.38;;;12.74;100.00
61645;BME280;47553;52.428;13.382;2022-10-15T06:39:20;100235.63;;;12.81;100.00
61645;BME280;47553;52.428;13.382;2022-10-15T06:41:23;100234.19;;;12.88;100.00
61645;BME280;47553;52.428;13.382;2022-10-15T06:43:24;100241.25;;;12.89;100.00
61645;BME280;47553;52.428;13.382;2022-10-15T06:45:28;100246.75;;;12.99;100.00
61645;BME280;47553;52.428;13.382;2022-10-15T06:47:30;100240.06;;;13.05;100.00
61645;BME280;47553;52.428;13.382;2022-10-15T06:49:31;100249.66;;;13.20;100.00
61645;BME280;47553;52.428;13.382;2022-10-15T06:51:33;100254.41;;;13.27;100.00
61645;BME280;47553;52.428;13.382;2022-10-15T06:53:35;100261.34;;;13.30;100.00
61645;BME280;47553;52.428;13.382;2022-10-15T06:55:36;100255.97;;;13.19;100.00
61645;BME280;47553;52.428;13.382;2022-10-15T06:57:39;100265.38;;;13.24;100.00
61645;BME280;47553;52.428;13.382;2022-10-15T06:59:41;100264.88;;;13.30;100.00
61645;BME280;47553;52.428;13.382;2022-10-15T07:01:42;100259.34;;;13.45;100.00
61645;BME280;47553;52.428;13.382;2022-10-15T07:03:44;100261.44;;;13.52;100.00
61645;BME280;47553;52.428;13.382;2022-10-15T07:05:48;100268.03;;;13.59;100.00
61645;BME280;47553;52.428;13.382;2022-10-15T07:07:50;100270.22;;;13.66;100.00
61645;BME280;47553;52.428;13.382;2022-10-15T07:09:52;100285.31;;;13.67;100.00
61645;BME280;47553;52.428;13.382;2022-10-15T07:11:53;100280.47;;;13.72;100.00
61645;BME280;47553;52.428;13.382;2022-10-15T07:13:56;100286.91;;;13.69;100.00
61645;BME280;47553;52.428;13.382;2022-10-15T07:16:02;100292.63;;;13.65;100.00
61645;BME280;47553;52.428;13.382;2022-10-15T07:18:04;100293.59;;;13.63;100.00
61645;BME280;47553;52.428;13.382;2022-10-15T07:20:06;100288.72;;;13.57;100.00
61645;BME280;47553;52.428;13.382;2022-10-15T07:22:08;100283.72;;;13.53;100.00
61645;BME280;47553;52.428;13.382;2022-10-15T07:24:09;100288.69;;;13.46;100.00
61645;BME280;47553;52.428;13.382;2022-10-15T07:26:11;100278.22;;;13.43;100.00
61645;BME280;47553;52.428;13.382;2022-10-15T07:28:12;100278.00;;;13.46;100.00
61645;BME280;47553;52.428;13.382;2022-10-15T07:30:15;100278.25;;;13.54;100.00
61645;BME280;47553;52.428;13.382;2022-10-15T07:32:17;100276.56;;;13.65;100.00
61645;BME280;47553;52.428;13.382;2022-10-15T07:34:18;100278.16;;;13.78;100.00
61645;BME280;47553;52.428;13.382;2022-10-15T07:36:20;100274.16;;;13.95;100.00
61645;BME280;47553;52.428;13.382;2022-10-15T07:38:22;100276.72;;;14.08;100.00
61645;BME280;47553;52.428;13.382;2022-10-15T07:40:23;100273.19;;;14.18;100.00
61645;BME280;47553;52.428;13.382;2022-10-15T07:42:25;100266.44;;;14.35;100.00
61645;BME280;47553;52.428;13.382;2022-10-15T07:44:27;100272.41;;;14.50;100.00
61645;BME280;47553;52.428;13.382;2022-10-15T07:46:30;100272.41;;;14.50;100.00
61645;BME280;47553;52.428;13.382;2022-10-15T07:48:31;100279.22;;;14.54;100.00
61645;BME280;47553;52.428;13.382;2022-10-15T07:50:33;100278.75;;;14.49;100.00
61645;BME280;47553;52.428;13.382;2022-10-15T07:52:38;100278.50;;;14.52;100.00
61645;BME280;47553;52.428;13.382;2022-10-15T07:54:40;100272.88;;;14.55;100.00
61645;BME280;47553;52.428;13.382;2022-10-15T07:56:41;100278.03;;;14.58;100.00
61645;BME280;47553;52.428;13.382;2022-10-15T07:58:43;100278.03;;;14.69;100.00
61645;BME280;47553;52.428;13.382;2022-10-15T08:00:44;100284.59;;;14.76;100.00
61645;BME280;47553;52.428;13.382;2022-10-15T08:02:47;100274.81;;;14.75;100.00
61645;BME280;47553;52.428;13.382;2022-10-15T08:04:49;100277.97;;;14.80;100.00
61645;BME280;47553;52.428;13.382;2022-10-15T08:06:50;100274.91;;;14.85;100.00
61645;BME280;47553;52.428;13.382;2022-10-15T08:08:52;100283.44;;;14.90;100.00
61645;BME280;47553;52.428;13.382;2022-10-15T08:10:53;100282.19;;;14.94;100.00
61645;BME280;47553;52.428;13.382;2022-10-15T08:12:55;100279.59;;;15.04;100.00
61645;BME280;47553;52.428;13.382;2022-10-15T08:14:56;100282.75;;;15.09;100.00
61645;BME280;47553;52.428;13.382;2022-10-15T08:16:58;100280.28;;;15.17;100.00
61645;BME280;47553;52.428;13.382;2022-10-15T08:19:01;100291.47;;;15.22;100.00
61645;BME280;47553;52.428;13.382;2022-10-15T08:21:03;100280.53;;;15.14;100.00
61645;BME280;47553;52.428;13.382;2022-10-15T08:23:05;100283.94;;;15.16;100.00
61645;BME280;47553;52.428;13.382;2022-10-15T08:25:14;100286.03;;;15.33;100.00
61645;BME280;47553;52.428;13.382;2022-10-15T08:27:15;100285.81;;;15.36;100.00
61645;BME280;47553;52.428;13.382;2022-10-15T08:29:17;100286.03;;;15.33;100.00
61645;BME280;47553;52.428;13.382;2022-10-15T08:31:19;100295.34;;;15.29;100.00
61645;BME280;47553;52.428;13.382;2022-10-15T08:33:20;100292.63;;;15.40;100.00
61645;BME280;47553;52.428;13.382;2022-10-15T08:35:23;100291.41;;;15.33;100.00
61645;BME280;47553;52.428;13.382;2022-10-15T08:37:24;100294.09;;;15.33;100.00
61645;BME280;47553;52.428;13.382;2022-10-15T08:39:26;100293.25;;;15.33;100.00
61645;BME280;47553;52.428;13.382;2022-10-15T08:41:30;100290.34;;;15.36;100.00
61645;BME280;47553;52.428;13.382;2022-10-15T08:43:36;100292.63;;;15.40;100.00
61645;BME280;47553;52.428;13.382;2022-10-15T08:45:40;100294.94;;;15.45;100.00
61645;BME280;47553;52.428;13.382;2022-10-15T08:47:47;100298.84;;;15.62;100.00
61645;BME280;47553;52.428;13.382;2022-10-15T08:49:52;100304.47;;;15.70;100.00
61645;BME280;47553;52.428;13.382;2022-10-15T08:52:02;100303.06;;;15.75;100.00
61645;BME280;47553;52.428;13.382;2022-10-15T08:54:10;100303.13;;;15.85;100.00
61645;BME280;47553;52.428;13.382;2022-10-15T08:56:18;100301.91;;;15.68;100.00
61645;BME280;47553;52.428;13.382;2022-10-15T08:58:25;100308.59;;;15.74;100.00
61645;BME280;47553;52.428;13.382;2022-10-15T09:00:31;100304.97;;;15.84;100.00
61645;BME280;47553;52.428;13.382;2022-10-15T09:02:38;100315.69;;;16.05;100.00
61645;BME280;47553;52.428;13.382;2022-10-15T09:04:50;100312.09;;;15.95;100.00
61645;BME280;47553;52.428;13.382;2022-10-15T09:07:02;100304.03;;;15.95;100.00
61645;BME280;47553;52.428;13.382;2022-10-15T09:09:13;100309.69;;;15.92;100.00
61645;BME280;47553;52.428;13.382;2022-10-15T09:11:35;100312.28;;;16.03;100.00
61645;BME280;47553;52.428;13.382;2022-10-15T09:13:42;100315.19;;;16.11;100.00
61645;BME280;47553;52.428;13.382;2022-10-15T09:15:47;100312.22;;;16.14;100.00
61645;BME280;47553;52.428;13.382;2022-10-15T09:17:53;100310.03;;;16.08;100.00
61645;BME280;47553;52.428;13.382;2022-10-15T09:19:57;100321.63;;;16.30;100.00
61645;BME280;47553;52.428;13.382;2022-10-15T09:22:01;100318.75;;;16.22;100.00
61645;BME280;47553;52.428;13.382;2022-10-15T09:24:03;100311.31;;;16.35;100.00
61645;BME280;47553;52.428;13.382;2022-10-15T09:26:17;100315.00;;;16.43;100.00
61645;BME280;47553;52.428;13.382;2022-10-15T09:28:24;100326.34;;;16.47;100.00
61645;BME280;47553;52.428;13.382;2022-10-15T09:30:34;100315.31;;;16.50;100.00
61645;BME280;47553;52.428;13.382;2022-10-15T09:32:40;100310.72;;;16.71;100.00
61645;BME280;47553;52.428;13.382;2022-10-15T09:34:49;100307.25;;;17.00;100.00
61645;BME280;47553;52.428;13.382;2022-10-15T09:36:53;100313.22;;;17.13;100.00
61645;BME280;47553;52.428;13.382;2022-10-15T09:39:04;100309.66;;;17.22;100.00
61645;BME280;47553;52.428;13.382;2022-10-15T09:41:15;100318.03;;;17.29;100.00
61645;BME280;47553;52.428;13.382;2022-10-15T09:43:23;100312.78;;;17.27;100.00
61645;BME280;47553;52.428;13.382;2022-10-15T09:45:26;100315.63;;;17.16;100.00
61645;BME280;47553;52.428;13.382;2022-10-15T09:47:29;100322.16;;;17.23;100.00
61645;BME280;47553;52.428;13.382;2022-10-15T09:49:32;100318.75;;;17.12;100.00
61645;BME280;47553;52.428;13.382;2022-10-15T09:51:39;100314.91;;;17.14;100.00
61645;BME280;47553;52.428;13.382;2022-10-15T09:53:47;100322.28;;;17.12;100.00
61645;BME280;47553;52.428;13.382;2022-10-15T09:55:55;100323.84;;;17.05;100.00
61645;BME280;47553;52.428;13.382;2022-10-15T09:58:04;100325.97;;;17.11;100.00
61645;BME280;47553;52.428;13.382;2022-10-15T10:00:09;100312.50;;;17.11;100.00
61645;BME280;47553;52.428;13.382;2022-10-15T10:02:18;100317.75;;;17.22;100.00
61645;BME280;47553;52.428;13.382;2022-10-15T10:04:20;100317.59;;;17.14;100.00
61645;BME280;47553;52.428;13.382;2022-10-15T10:06:22;100324.84;;;17.23;100.00
61645;BME280;47553;52.428;13.382;2022-10-15T10:08:26;100329.94;;;17.26;100.00
61645;BME280;47553;52.428;13.382;2022-10-15T10:10:29;100329.50;;;17.40;100.00
61645;BME280;47553;52.428;13.382;2022-10-15T10:12:34;100337.59;;;17.40;100.00
61645;BME280;47553;52.428;13.382;2022-10-15T10:14:40;100336.47;;;17.33;100.00
61645;BME280;47553;52.428;13.382;2022-10-15T10:17:04;100335.47;;;17.34;100.00
61645;BME280;47553;52.428;13.382;2022-10-15T10:19:12;100329.94;;;17.26;100.00
61645;BME280;47553;52.428;13.382;2022-10-15T10:21:21;100334.47;;;17.16;100.00
61645;BME280;47553;52.428;13.382;2022-10-15T10:23:27;100332.06;;;17.32;100.00
61645;BME280;47553;52.428;13.382;2022-10-15T10:25:33;100325.69;;;17.43;100.00
61645;BME280;47553;52.428;13.382;2022-10-15T10:27:36;100334.75;;;17.42;98.89
61645;BME280;47553;52.428;13.382;2022-10-15T10:29:38;100340.16;;;17.42;97.34
61645;BME280;47553;52.428;13.382;2022-10-15T10:31:40;100329.66;;;17.39;97.77